Time;durP1;ratioP1;P1;durP2;ratioP2;P2;SDS_P1;SDS_P2;PMS_P1;PMS_P2;Temp;Humidity;BMP_temperature;BMP_pressure;BME280_temperature;BME280_humidity;BME280_pressure;Samples;Min_cycle;Max_cycle;Signal;HPM_P1;HPM_P2
2021/08/18 00:00:40;;;;;;;;;;;;;;;;;;5067838;28;19924;-91
2021/08/18 00:03:08;;;;;;;;;;;;;;;;;;5046363;28;19939;-91
2021/08/18 00:05:38;;;;;;;;;;;;;;;;;;5061597;28;19936;-91
2021/08/18 00:08:06;;;;;;;;;;;;;;;;;;5045600;28;20461;-91
2021/08/18 00:10:35;;;;;;;;;;;;;;;;;;5050635;28;20412;-92
2021/08/18 00:13:05;;;;;;;;;;;;;;;;;;5059247;28;19933;-91
2021/08/18 00:15:33;;;;;;;;;;;;;;;;;;5065488;28;19925;-91
2021/08/18 00:18:03;;;;;;;;;;;;;;;;;;5068037;28;19924;-91
2021/08/18 00:20:31;;;;;;;;;;;;;;;;;;5058725;28;19932;-92
2021/08/18 00:22:59;;;;;;;;;;;;;;;;;;5050103;28;19925;-93
2021/08/18 00:25:28;;;;;;;;;;;;;;;;;;5046533;28;19929;-92
2021/08/18 00:27:56;;;;;;;;;;;;;;;;;;5050808;28;19951;-92
2021/08/18 00:30:26;;;;;;;;;;;;;;;;;;5060051;28;19941;-93
2021/08/18 00:32:54;;;;;;;;;;;;;;;;;;5043508;28;19924;-91
2021/08/18 00:35:23;;;;;;;;;;;;;;;;;;5051579;28;19924;-91
2021/08/18 00:37:51;;;;;;;;;;;;;;;;;;5046456;28;19928;-91
2021/08/18 00:40:20;;;;;;;;;;;;;;;;;;5046279;28;19931;-91
2021/08/18 00:42:48;;;;;;;;;;;;;;;;;;5068127;28;19924;-91
2021/08/18 00:45:17;;;;;;;;;;;;;;;;;;5046709;28;19943;-92
2021/08/18 00:47:47;;;;;;;;;;;;;;;;;;5044060;28;19924;-92
2021/08/18 00:50:16;;;;;;;;;;;;;;;;;;5040606;28;19924;-91
2021/08/18 00:52:45;;;;;;;;;;;;;;;;;;5048138;28;19932;-92
2021/08/18 00:55:15;;;;;;;;;;;;;;;;;;5060364;28;19931;-91
2021/08/18 00:57:44;;;;;;;;;;;;;;;;;;5066924;28;19932;-89
2021/08/18 01:00:13;;;;;;;;;;;;;;;;;;5055783;28;19924;-92
2021/08/18 01:02:43;;;;;;;;;;;;;;;;;;5045562;28;19935;-92
2021/08/18 01:05:14;;;;;;;;;;;;;;;;;;5069117;28;19928;-92
2021/08/18 01:07:42;;;;;;;;;;;;;;;;;;5050084;28;19925;-91
2021/08/18 01:10:12;;;;;;;;;;;;;;;;;;5047549;28;19931;-91
2021/08/18 01:12:41;;;;;;;;;;;;;;;;;;5047212;28;19932;-90
2021/08/18 01:15:10;;;;;;;;;;;;;;;;;;5051675;28;20392;-91
2021/08/18 01:17:40;;;;;;;;;;;;;;;;;;5047049;28;19932;-90
2021/08/18 01:20:09;;;;;;;;;;;;;;;;;;5063357;28;19928;-91
2021/08/18 01:22:39;;;;;;;;;;;;;;;;;;5061083;28;19939;-91
2021/08/18 01:25:08;;;;;;;;;;;;;;;;;;5061113;28;19944;-91
2021/08/18 01:27:36;;;;;;;;;;;;;;;;;;5048773;28;19936;-92
2021/08/18 01:30:06;;;;;;;;;;;;;;;;;;5049174;28;19932;-92
2021/08/18 01:32:43;;;;;;;;;;;;;;;;;;5060107;28;19935;-92
2021/08/18 01:35:19;;;;;;;;;;;;;;;;;;5039929;28;19931;-93
2021/08/18 01:37:47;;;;;;;;;;;;;;;;;;5050509;28;20316;-91
2021/08/18 01:40:15;;;;;;;;;;;;;;;;;;5048561;28;20602;-91
2021/08/18 01:42:44;;;;;;;;;;;;;;;;;;5051263;28;19925;-93
2021/08/18 01:45:20;;;;;;;;;;;;;;;;;;5047935;28;20301;-92
2021/08/18 01:47:48;;;;;;;;;;;;;;;;;;5048035;28;19936;-91
2021/08/18 01:50:16;;;;;;;;;;;;;;;;;;5062007;28;20317;-93
2021/08/18 01:52:44;;;;;;;;;;;;;;;;;;5048709;28;19947;-92
2021/08/18 01:55:12;;;;;;;;;;;;;;;;;;5049886;28;20392;-92
2021/08/18 01:57:41;;;;;;;;;;;;;;;;;;5067965;28;19951;-90
2021/08/18 02:00:10;;;;;;;;;;;;;;;;;;5069945;28;19929;-91
2021/08/18 02:02:42;;;;;;;;;;;;;;;;;;5061772;28;19928;-92
2021/08/18 02:05:11;;;;;;;;;;;;;;;;;;5067446;28;19928;-92
2021/08/18 02:07:39;;;;;;;;;;;;;;;;;;5067877;28;19924;-92
2021/08/18 02:10:10;;;;;;;;;;;;;;;;;;5054487;28;19947;-91
2021/08/18 02:12:38;;;;;;;;;;;;;;;;;;5056215;28;19932;-91
2021/08/18 02:15:07;;;;;;;;;;;;;;;;;;5045466;28;20277;-91
2021/08/18 02:17:35;;;;;;;;;;;;;;;;;;5056004;28;19924;-91
2021/08/18 02:20:06;;;;;;;;;;;;;;;;;;5049216;28;19928;-92
2021/08/18 02:22:35;;;;;;;;;;;;;;;;;;5066840;28;19925;-91
2021/08/18 02:25:03;;;;;;;;;;;;;;;;;;5054108;28;19940;-91
2021/08/18 02:27:32;;;;;;;;;;;;;;;;;;5047809;28;19931;-90
2021/08/18 02:30:00;;;;;;;;;;;;;;;;;;5067922;28;19928;-92
2021/08/18 02:32:29;;;;;;;;;;;;;;;;;;5047608;28;19939;-93
2021/08/18 02:34:57;;;;;;;;;;;;;;;;;;5067537;28;20067;-91
2021/08/18 02:37:26;;;;;;;;;;;;;;;;;;5047419;28;20210;-91
2021/08/18 02:39:54;;;;;;;;;;;;;;;;;;5050214;28;19924;-90
2021/08/18 02:42:23;;;;;;;;;;;;;;;;;;5049387;28;19933;-90
2021/08/18 02:44:51;;;;;;;;;;;;;;;;;;5053086;28;20265;-90
2021/08/18 02:47:19;;;;;;;;;;;;;;;;;;5050435;28;19924;-90
2021/08/18 02:49:48;;;;;;;;;;;;;;;;;;5064990;28;19931;-90
2021/08/18 02:52:16;;;;;;;;;;;;;;;;;;5049746;28;19925;-91
2021/08/18 02:54:46;;;;;;;;;;;;;;;;;;5046944;28;19924;-92
2021/08/18 02:57:14;;;;;;;;;;;;;;;;;;5044351;28;19931;-92
2021/08/18 02:59:42;;;;;;;;;;;;;;;;;;5046563;28;19936;-91
2021/08/18 03:02:11;;;;;;;;;;;;;;;;;;5078393;28;19928;-92
2021/08/18 03:04:39;;;;;;;;;;;;;;;;;;5068137;28;20388;-90
2021/08/18 03:07:07;;;;;;;;;;;;;;;;;;5054609;28;19931;-89
2021/08/18 03:09:35;;;;;;;;;;;;;;;;;;5068790;28;20319;-91
2021/08/18 03:12:06;;;;;;;;;;;;;;;;;;5045853;28;19924;-90
2021/08/18 03:14:34;;;;;;;;;;;;;;;;;;5061450;28;19929;-91
2021/08/18 03:17:02;;;;;;;;;;;;;;;;;;5065353;28;19924;-91
2021/08/18 03:19:30;;;;;;;;;;;;;;;;;;5050426;28;19935;-91
2021/08/18 03:21:59;;;;;;;;;;;;;;;;;;5055628;28;19931;-91
2021/08/18 03:24:27;;;;;;;;;;;;;;;;;;5063634;28;20404;-91
2021/08/18 03:26:55;;;;;;;;;;;;;;;;;;5064984;28;20298;-92
2021/08/18 03:29:25;;;;;;;;;;;;;;;;;;5053945;28;19925;-91
2021/08/18 03:31:53;;;;;;;;;;;;;;;;;;5053064;28;19924;-91
2021/08/18 03:34:21;;;;;;;;;;;;;;;;;;5065737;28;20318;-93
2021/08/18 03:36:49;;;;;;;;;;;;;;;;;;5045643;28;19940;-93
2021/08/18 03:39:18;;;;;;;;;;;;;;;;;;5048974;28;19939;-92
2021/08/18 03:41:46;;;;;;;;;;;;;;;;;;5055537;28;19932;-92
2021/08/18 03:44:14;;;;;;;;;;;;;;;;;;5082895;28;19924;-93
2021/08/18 03:46:44;;;;;;;;;;;;;;;;;;5063188;28;19924;-92
2021/08/18 03:49:12;;;;;;;;;;;;;;;;;;5062107;28;19932;-90
2021/08/18 03:51:40;;;;;;;;;;;;;;;;;;5064448;28;20311;-91
2021/08/18 03:54:08;;;;;;;;;;;;;;;;;;5066618;28;19931;-88
2021/08/18 03:56:36;;;;;;;;;;;;;;;;;;5046911;28;19924;-93
2021/08/18 03:59:04;;;;;;;;;;;;;;;;;;5051943;28;19939;-91
2021/08/18 04:01:33;;;;;;;;;;;;;;;;;;5044601;28;19924;-91
2021/08/18 04:04:02;;;;;;;;;;;;;;;;;;5043753;28;19924;-91
2021/08/18 04:06:31;;;;;;;;;;;;;;;;;;5080166;28;19936;-92
2021/08/18 04:08:59;;;;;;;;;;;;;;;;;;5078093;28;19929;-91
2021/08/18 04:11:27;;;;;;;;;;;;;;;;;;5050864;28;19955;-91
2021/08/18 04:13:55;;;;;;;;;;;;;;;;;;5054715;28;19924;-91
2021/08/18 04:16:23;;;;;;;;;;;;;;;;;;5046276;28;20308;-89
2021/08/18 04:18:52;;;;;;;;;;;;;;;;;;5055011;28;19932;-92
2021/08/18 04:21:22;;;;;;;;;;;;;;;;;;5064334;28;19924;-91
2021/08/18 04:23:50;;;;;;;;;;;;;;;;;;5048257;28;19931;-93
2021/08/18 04:26:18;;;;;;;;;;;;;;;;;;5050492;28;19924;-91
2021/08/18 04:28:46;;;;;;;;;;;;;;;;;;5047958;28;19930;-91
2021/08/18 04:31:14;;;;;;;;;;;;;;;;;;5039457;28;20304;-89
2021/08/18 04:33:42;;;;;;;;;;;;;;;;;;5047413;28;19928;-90
2021/08/18 04:36:10;;;;;;;;;;;;;;;;;;5041319;28;19931;-90
2021/08/18 04:38:40;;;;;;;;;;;;;;;;;;5066447;28;19924;-90
2021/08/18 04:41:08;;;;;;;;;;;;;;;;;;5044517;28;19924;-90
2021/08/18 04:43:36;;;;;;;;;;;;;;;;;;5047869;28;19931;-90
2021/08/18 04:46:05;;;;;;;;;;;;;;;;;;5063535;28;19925;-89
2021/08/18 04:48:33;;;;;;;;;;;;;;;;;;5057389;28;19928;-90
2021/08/18 04:51:02;;;;;;;;;;;;;;;;;;5046912;28;19935;-91
2021/08/18 04:53:34;;;;;;;;;;;;;;;;;;5045754;28;20439;-90
2021/08/18 04:56:03;;;;;;;;;;;;;;;;;;5053864;28;19931;-91
2021/08/18 04:58:31;;;;;;;;;;;;;;;;;;5036251;28;19924;-90
2021/08/18 05:00:59;;;;;;;;;;;;;;;;;;5049929;28;19924;-90
2021/08/18 05:03:28;;;;;;;;;;;;;;;;;;5051870;28;19931;-90
2021/08/18 05:05:56;;;;;;;;;;;;;;;;;;5035641;28;19929;-89
2021/08/18 05:08:24;;;;;;;;;;;;;;;;;;5053730;28;19931;-91
2021/08/18 05:10:52;;;;;;;;;;;;;;;;;;5030839;28;20414;-90
2021/08/18 05:13:22;;;;;;;;;;;;;;;;;;5055048;28;20330;-88
2021/08/18 05:15:50;;;;;;;;;;;;;;;;;;5055468;28;20304;-90
2021/08/18 05:18:18;;;;;;;;;;;;;;;;;;5034294;28;20307;-90
2021/08/18 05:20:46;;;;;;;;;;;;;;;;;;5041964;28;19924;-89
2021/08/18 05:23:14;;;;;;;;;;;;;;;;;;5036235;28;20010;-88
2021/08/18 05:25:42;;;;;;;;;;;;;;;;;;5057453;28;19929;-90
2021/08/18 05:28:13;;;;;;;;;;;;;;;;;;5051348;28;19925;-88
2021/08/18 05:30:43;;;;;;;;;;;;;;;;;;5052375;28;19924;-89
2021/08/18 05:33:11;;;;;;;;;;;;;;;;;;5037527;28;19935;-91
2021/08/18 05:35:39;;;;;;;;;;;;;;;;;;5056389;28;19925;-89
2021/08/18 05:38:07;;;;;;;;;;;;;;;;;;5038868;28;19933;-90
2021/08/18 05:40:35;;;;;;;;;;;;;;;;;;5036955;28;19924;-89
2021/08/18 05:43:04;;;;;;;;;;;;;;;;;;5036477;28;20249;-89
2021/08/18 05:45:32;;;;;;;;;;;;;;;;;;5039377;28;19931;-89
2021/08/18 05:48:01;;;;;;;;;;;;;;;;;;5057871;28;20422;-90
2021/08/18 05:50:29;;;;;;;;;;;;;;;;;;5052026;28;19939;-88
2021/08/18 05:52:57;;;;;;;;;;;;;;;;;;5036252;28;19947;-89
2021/08/18 05:55:25;;;;;;;;;;;;;;;;;;5037774;28;19928;-89
2021/08/18 05:57:54;;;;;;;;;;;;;;;;;;5055240;28;19935;-87
2021/08/18 06:00:22;;;;;;;;;;;;;;;;;;5038596;28;19935;-90
2021/08/18 06:02:55;;;;;;;;;;;;;;;;;;5039522;28;19924;-92
2021/08/18 06:05:43;;;;;;;;;;;;;;;;;;5036822;28;19928;-92
2021/08/18 06:11:49;;;;;;;;;;;;;;;;;;5053678;28;20446;-93
2021/08/18 06:14:17;;;;;;;;;;;;;;;;;;5046743;28;19924;-93
2021/08/18 06:16:45;;;;;;;;;;;;;;;;;;5049320;28;19928;-93
2021/08/18 06:19:14;;;;;;;;;;;;;;;;;;5048686;28;19924;-92
2021/08/18 06:21:43;;;;;;;;;;;;;;;;;;5052196;28;19931;-92
2021/08/18 06:24:17;;;;;;;;;;;;;;;;;;5035980;28;19948;-90
2021/08/18 06:26:45;;;;;;;;;;;;;;;;;;5031430;28;20406;-91
2021/08/18 06:29:14;;;;;;;;;;;;;;;;;;5033520;28;20717;-91
2021/08/18 06:31:42;;;;;;;;;;;;;;;;;;5045071;28;20425;-89
2021/08/18 06:34:12;;;;;;;;;;;;;;;;;;5063496;28;19933;-91
2021/08/18 06:36:40;;;;;;;;;;;;;;;;;;5053249;28;19957;-91
2021/08/18 06:39:09;;;;;;;;;;;;;;;;;;5029585;28;19925;-90
2021/08/18 06:41:38;;;;;;;;;;;;;;;;;;5033999;28;19936;-92
2021/08/18 06:44:06;;;;;;;;;;;;;;;;;;5033024;28;20482;-91
2021/08/18 06:46:37;;;;;;;;;;;;;;;;;;5048762;28;19939;-91
2021/08/18 06:49:05;;;;;;;;;;;;;;;;;;5034738;28;20225;-91
2021/08/18 06:51:33;;;;;;;;;;;;;;;;;;5031944;28;20520;-91
2021/08/18 06:54:02;;;;;;;;;;;;;;;;;;5051737;28;19940;-90
2021/08/18 06:56:31;;;;;;;;;;;;;;;;;;5053334;28;19925;-91
2021/08/18 06:58:59;;;;;;;;;;;;;;;;;;5031883;28;19939;-90
2021/08/18 07:01:27;;;;;;;;;;;;;;;;;;5035441;28;19932;-92
2021/08/18 07:03:55;;;;;;;;;;;;;;;;;;5053660;28;19932;-90
2021/08/18 07:06:24;;;;;;;;;;;;;;;;;;5039519;28;19924;-90
2021/08/18 07:08:52;;;;;;;;;;;;;;;;;;5037496;28;19925;-90
2021/08/18 07:11:20;;;;;;;;;;;;;;;;;;5031744;28;19925;-91
2021/08/18 07:13:49;;;;;;;;;;;;;;;;;;5052820;28;19940;-90
2021/08/18 07:16:17;;;;;;;;;;;;;;;;;;5055212;28;19928;-91
2021/08/18 07:18:45;;;;;;;;;;;;;;;;;;5033754;28;19925;-90
2021/08/18 07:21:19;;;;;;;;;;;;;;;;;;5066829;28;20307;-90
2021/08/18 07:23:48;;;;;;;;;;;;;;;;;;5067243;28;19928;-90
2021/08/18 07:26:16;;;;;;;;;;;;;;;;;;5048832;28;19932;-90
2021/08/18 07:28:44;;;;;;;;;;;;;;;;;;5070101;28;19924;-90
2021/08/18 07:31:14;;;;;;;;;;;;;;;;;;5050387;28;19924;-90
2021/08/18 07:33:42;;;;;;;;;;;;;;;;;;5034517;28;19932;-91
2021/08/18 07:36:10;;;;;;;;;;;;;;;;;;5049283;28;19925;-90
2021/08/18 07:38:38;;;;;;;;;;;;;;;;;;5036850;28;19925;-90
2021/08/18 07:41:06;;;;;;;;;;;;;;;;;;5036486;28;19939;-90
2021/08/18 07:43:35;;;;;;;;;;;;;;;;;;5036620;28;19932;-89
2021/08/18 07:46:03;;;;;;;;;;;;;;;;;;5034938;28;19924;-89
2021/08/18 07:48:33;;;;;;;;;;;;;;;;;;5050305;28;19924;-91
2021/08/18 07:51:01;;;;;;;;;;;;;;;;;;5035127;28;19944;-90
2021/08/18 07:53:29;;;;;;;;;;;;;;;;;;5041008;28;20188;-89
2021/08/18 07:55:57;;;;;;;;;;;;;;;;;;5056258;28;20316;-91
2021/08/18 07:58:25;;;;;;;;;;;;;;;;;;5050454;28;19924;-91
2021/08/18 08:00:53;;;;;;;;;;;;;;;;;;5041037;28;19931;-90
2021/08/18 08:03:22;;;;;;;;;;;;;;;;;;5035222;28;20442;-91
2021/08/18 08:05:51;;;;;;;;;;;;;;;;;;5037981;28;19932;-90
2021/08/18 08:08:20;;;;;;;;;;;;;;;;;;5032281;28;19935;-91
2021/08/18 08:10:48;;;;;;;;;;;;;;;;;;5037047;28;20312;-90
2021/08/18 08:13:16;;;;;;;;;;;;;;;;;;5036604;28;20383;-91
2021/08/18 08:15:44;;;;;;;;;;;;;;;;;;5033114;28;19925;-91
2021/08/18 08:18:12;;;;;;;;;;;;;;;;;;5032964;28;20323;-90
2021/08/18 08:20:41;;;;;;;;;;;;;;;;;;5035752;28;20392;-90
2021/08/18 08:23:10;;;;;;;;;;;;;;;;;;5037369;28;19929;-91
2021/08/18 08:25:38;;;;;;;;;;;;;;;;;;5049444;28;19924;-91
2021/08/18 08:28:07;;;;;;;;;;;;;;;;;;5032226;28;20407;-89
2021/08/18 08:30:35;;;;;;;;;;;;;;;;;;5040539;28;19932;-91
2021/08/18 08:33:03;;;;;;;;;;;;;;;;;;5038679;28;19931;-89
2021/08/18 08:35:31;;;;;;;;;;;;;;;;;;5033648;28;19928;-90
2021/08/18 08:37:59;;;;;;;;;;;;;;;;;;5051491;28;20316;-90
2021/08/18 08:40:29;;;;;;;;;;;;;;;;;;5052287;28;20392;-88
2021/08/18 08:42:57;;;;;;;;;;;;;;;;;;5050422;28;19948;-90
2021/08/18 08:45:26;;;;;;;;;;;;;;;;;;5053238;28;20404;-90
2021/08/18 08:47:54;;;;;;;;;;;;;;;;;;5055872;28;19924;-90
2021/08/18 08:50:23;;;;;;;;;;;;;;;;;;5036616;28;19939;-91
2021/08/18 08:52:51;;;;;;;;;;;;;;;;;;5050626;28;19928;-90
2021/08/18 08:55:19;;;;;;;;;;;;;;;;;;5054813;28;19925;-90
2021/08/18 08:57:49;;;;;;;;;;;;;;;;;;5056370;28;19924;-91
2021/08/18 09:00:19;;;;;;;;;;;;;;;;;;5038264;28;20112;-91
2021/08/18 09:02:48;;;;;;;;;;;;;;;;;;5051716;28;19924;-91
2021/08/18 09:05:25;;;;;;;;;;;;;;;;;;5037781;28;20293;-91
2021/08/18 09:07:56;;;;;;;;;;;;;;;;;;5038631;28;19924;-91
2021/08/18 09:10:25;;;;;;;;;;;;;;;;;;5045957;28;20326;-89
2021/08/18 09:12:54;;;;;;;;;;;;;;;;;;5037104;28;20403;-90
2021/08/18 09:15:25;;;;;;;;;;;;;;;;;;5037342;28;20288;-91
2021/08/18 09:17:53;;;;;;;;;;;;;;;;;;5042749;28;19924;-90
2021/08/18 09:20:22;;;;;;;;;;;;;;;;;;5035761;28;19932;-90
2021/08/18 09:22:51;;;;;;;;;;;;;;;;;;5055167;28;19925;-91
2021/08/18 09:25:20;;;;;;;;;;;;;;;;;;5035710;28;19924;-91
2021/08/18 09:27:50;;;;;;;;;;;;;;;;;;5049084;28;19931;-90
2021/08/18 09:30:21;;;;;;;;;;;;;;;;;;5041454;28;19936;-90
2021/08/18 09:32:50;;;;;;;;;;;;;;;;;;5059477;28;19931;-90
2021/08/18 09:35:19;;;;;;;;;;;;;;;;;;5033125;28;19936;-90
2021/08/18 09:37:54;;;;;;;;;;;;;;;;;;5034497;28;19933;-89
2021/08/18 09:40:22;;;;;;;;;;;;;;;;;;5038531;28;19936;-91
2021/08/18 09:42:51;;;;;;;;;;;;;;;;;;5034672;28;19936;-89
2021/08/18 09:45:25;;;;;;;;;;;;;;;;;;5035953;28;19924;-90
2021/08/18 09:47:57;;;;;;;;;;;;;;;;;;5051724;28;19925;-90
2021/08/18 09:50:26;;;;;;;;;;;;;;;;;;5034526;28;20327;-89
2021/08/18 09:52:54;;;;;;;;;;;;;;;;;;5053334;28;19940;-89
2021/08/18 09:55:24;;;;;;;;;;;;;;;;;;5052773;28;19932;-89
2021/08/18 09:57:52;;;;;;;;;;;;;;;;;;5038132;28;20288;-89
2021/08/18 10:00:20;;;;;;;;;;;;;;;;;;5052956;28;19945;-90
2021/08/18 10:02:50;;;;;;;;;;;;;;;;;;5055076;28;19929;-90
2021/08/18 10:05:20;;;;;;;;;;;;;;;;;;5036973;28;19928;-90
2021/08/18 10:07:48;;;;;;;;;;;;;;;;;;5040088;28;19924;-89
2021/08/18 10:10:16;;;;;;;;;;;;;;;;;;5053976;28;19925;-90
2021/08/18 10:12:44;;;;;;;;;;;;;;;;;;5037174;28;19924;-90
2021/08/18 10:15:12;;;;;;;;;;;;;;;;;;5061172;28;20434;-91
2021/08/18 10:17:41;;;;;;;;;;;;;;;;;;5039886;28;20293;-89
2021/08/18 10:20:10;;;;;;;;;;;;;;;;;;5041445;28;19925;-89
2021/08/18 10:22:39;;;;;;;;;;;;;;;;;;5051301;28;19932;-90
2021/08/18 10:25:25;;;;;;;;;;;;;;;;;;5036426;28;20303;-90
2021/08/18 10:27:53;;;;;;;;;;;;;;;;;;5037937;28;20404;-89
2021/08/18 10:30:22;;;;;;;;;;;;;;;;;;5051286;28;19931;-89
2021/08/18 10:32:50;;;;;;;;;;;;;;;;;;5060672;28;20392;-89
2021/08/18 10:35:37;;;;;;;;;;;;;;;;;;5058601;28;19935;-89
2021/08/18 10:38:24;;;;;;;;;;;;;;;;;;5041144;28;19936;-90
2021/08/18 10:40:54;;;;;;;;;;;;;;;;;;5038314;28;19947;-91
2021/08/18 10:43:41;;;;;;;;;;;;;;;;;;5036701;28;20179;-91
2021/08/18 10:46:09;;;;;;;;;;;;;;;;;;5035496;28;19924;-89
2021/08/18 10:49:07;;;;;;;;;;;;;;;;;;5039634;28;19928;-90
2021/08/18 10:51:50;;;;;;;;;;;;;;;;;;4972348;28;20279;-89
2021/08/18 10:54:37;;;;;;;;;;;;;;;;;;5041155;28;19928;-89
2021/08/18 10:57:27;;;;;;;;;;;;;;;;;;5036255;28;19928;-89
2021/08/18 10:59:55;;;;;;;;;;;;;;;;;;5040474;28;19935;-89
2021/08/18 11:02:42;;;;;;;;;;;;;;;;;;5037894;28;19925;-89
2021/08/18 11:05:14;;;;;;;;;;;;;;;;;;5069560;28;19929;-89
2021/08/18 11:08:00;;;;;;;;;;;;;;;;;;5054692;28;19925;-91
2021/08/18 11:10:29;;;;;;;;;;;;;;;;;;5040902;28;19932;-88
2021/08/18 11:12:59;;;;;;;;;;;;;;;;;;5036965;28;19925;-88
2021/08/18 11:15:46;;;;;;;;;;;;;;;;;;5054705;28;19925;-88
2021/08/18 11:18:16;;;;;;;;;;;;;;;;;;5037206;28;20518;-88
2021/08/18 11:20:46;;;;;;;;;;;;;;;;;;5054259;28;19931;-88
2021/08/18 11:23:14;;;;;;;;;;;;;;;;;;5040624;28;19925;-88
2021/08/18 11:25:43;;;;;;;;;;;;;;;;;;5056251;28;19935;-88
2021/08/18 11:28:21;;;;;;;;;;;;;;;;;;5055410;28;19924;-88
2021/08/18 11:30:59;;;;;;;;;;;;;;;;;;5037105;28;20315;-88
2021/08/18 11:33:28;;;;;;;;;;;;;;;;;;5037065;28;20304;-87
2021/08/18 11:35:56;;;;;;;;;;;;;;;;;;5042899;28;19928;-89
2021/08/18 11:38:24;;;;;;;;;;;;;;;;;;5038368;28;19932;-88
2021/08/18 11:40:53;;;;;;;;;;;;;;;;;;5036750;28;19931;-88
2021/08/18 11:43:39;;;;;;;;;;;;;;;;;;5039719;28;19924;-88
2021/08/18 11:46:07;;;;;;;;;;;;;;;;;;5052989;28;19924;-86
2021/08/18 11:48:36;;;;;;;;;;;;;;;;;;5033933;28;19932;-88
2021/08/18 11:51:11;;;;;;;;;;;;;;;;;;5035460;28;19943;-88
2021/08/18 11:53:39;;;;;;;;;;;;;;;;;;5052822;28;19924;-87
2021/08/18 11:56:07;;;;;;;;;;;;;;;;;;5055060;28;19932;-88
2021/08/18 11:58:36;;;;;;;;;;;;;;;;;;5039630;28;19924;-88
2021/08/18 12:01:06;;;;;;;;;;;;;;;;;;5036077;28;19932;-88
2021/08/18 12:03:35;;;;;;;;;;;;;;;;;;5034944;28;19988;-88
2021/08/18 12:06:04;;;;;;;;;;;;;;;;;;5052960;28;20219;-88
2021/08/18 12:08:34;;;;;;;;;;;;;;;;;;5051847;28;19931;-88
2021/08/18 12:11:03;;;;;;;;;;;;;;;;;;5054714;28;20285;-88
2021/08/18 12:13:38;;;;;;;;;;;;;;;;;;5033943;28;19931;-88
2021/08/18 12:16:21;;;;;;;;;;;;;;;;;;5034148;28;19933;-88
2021/08/18 12:18:51;;;;;;;;;;;;;;;;;;5038038;28;20262;-87
2021/08/18 12:21:20;;;;;;;;;;;;;;;;;;5036597;28;20399;-87
2021/08/18 12:23:48;;;;;;;;;;;;;;;;;;5054085;28;20423;-89
2021/08/18 12:26:29;;;;;;;;;;;;;;;;;;5034382;28;19928;-89
2021/08/18 12:28:57;;;;;;;;;;;;;;;;;;5053575;28;19924;-89
2021/08/18 12:31:26;;;;;;;;;;;;;;;;;;5049961;28;20498;-88
2021/08/18 12:34:08;;;;;;;;;;;;;;;;;;5035986;28;19931;-88
2021/08/18 12:36:36;;;;;;;;;;;;;;;;;;5071336;28;19936;-88
2021/08/18 12:39:05;;;;;;;;;;;;;;;;;;5038833;28;19932;-89
2021/08/18 12:41:34;;;;;;;;;;;;;;;;;;5052981;28;19925;-88
2021/08/18 12:44:09;;;;;;;;;;;;;;;;;;5035058;28;19928;-89
2021/08/18 12:46:37;;;;;;;;;;;;;;;;;;5031761;28;19924;-89
2021/08/18 12:49:26;;;;;;;;;;;;;;;;;;5055947;28;20392;-89
2021/08/18 12:51:54;;;;;;;;;;;;;;;;;;5035271;28;20291;-89
2021/08/18 12:54:22;;;;;;;;;;;;;;;;;;5036326;28;19924;-88
2021/08/18 12:56:50;;;;;;;;;;;;;;;;;;5036535;28;19931;-88
2021/08/18 12:59:18;;;;;;;;;;;;;;;;;;5038735;28;20400;-88
2021/08/18 13:01:47;;;;;;;;;;;;;;;;;;5041942;28;19931;-87
2021/08/18 13:04:15;;;;;;;;;;;;;;;;;;5038596;28;19932;-88
2021/08/18 13:06:45;;;;;;;;;;;;;;;;;;5041892;28;20407;-89
2021/08/18 13:09:14;;;;;;;;;;;;;;;;;;5036602;28;19943;-90
2021/08/18 13:11:43;;;;;;;;;;;;;;;;;;5051484;28;19925;-89
2021/08/18 13:14:11;;;;;;;;;;;;;;;;;;5035298;28;19931;-89
2021/08/18 13:16:39;;;;;;;;;;;;;;;;;;5035464;28;20087;-89
2021/08/18 13:19:07;;;;;;;;;;;;;;;;;;5037094;28;19939;-88
2021/08/18 13:21:35;;;;;;;;;;;;;;;;;;5038521;28;19928;-88
2021/08/18 13:24:08;;;;;;;;;;;;;;;;;;5037269;28;19932;-88
2021/08/18 13:26:38;;;;;;;;;;;;;;;;;;5035437;28;19929;-89
2021/08/18 13:29:06;;;;;;;;;;;;;;;;;;5039594;28;19924;-89
2021/08/18 13:31:35;;;;;;;;;;;;;;;;;;5052815;28;19931;-90
2021/08/18 13:34:04;;;;;;;;;;;;;;;;;;5035983;28;19924;-89
2021/08/18 13:36:32;;;;;;;;;;;;;;;;;;5045429;28;20300;-88
2021/08/18 13:39:01;;;;;;;;;;;;;;;;;;5044608;28;20467;-88
2021/08/18 13:41:31;;;;;;;;;;;;;;;;;;5040154;28;20323;-88
2021/08/18 13:43:59;;;;;;;;;;;;;;;;;;5037918;28;19925;-88
2021/08/18 13:46:28;;;;;;;;;;;;;;;;;;5055911;28;19928;-87
2021/08/18 13:48:57;;;;;;;;;;;;;;;;;;5040162;28;19932;-88
2021/08/18 13:51:25;;;;;;;;;;;;;;;;;;5038620;28;20442;-88
2021/08/18 13:53:54;;;;;;;;;;;;;;;;;;5039047;28;19929;-89
2021/08/18 13:56:22;;;;;;;;;;;;;;;;;;5039993;28;19924;-89
2021/08/18 13:58:51;;;;;;;;;;;;;;;;;;5040218;28;19924;-88
2021/08/18 14:01:20;;;;;;;;;;;;;;;;;;5054990;28;20312;-89
2021/08/18 14:03:49;;;;;;;;;;;;;;;;;;5039785;28;20036;-89
2021/08/18 14:06:17;;;;;;;;;;;;;;;;;;5037087;28;19932;-89
2021/08/18 14:08:47;;;;;;;;;;;;;;;;;;5041444;28;19932;-88
2021/08/18 14:11:15;;;;;;;;;;;;;;;;;;5062416;28;19943;-89
2021/08/18 14:13:43;;;;;;;;;;;;;;;;;;5057520;28;19925;-88
2021/08/18 14:16:13;;;;;;;;;;;;;;;;;;5055969;28;19933;-88
2021/08/18 14:18:41;;;;;;;;;;;;;;;;;;5040149;28;19955;-88
2021/08/18 14:21:09;;;;;;;;;;;;;;;;;;5036837;28;19932;-89
2021/08/18 14:23:37;;;;;;;;;;;;;;;;;;5041222;28;19928;-88
2021/08/18 14:26:06;;;;;;;;;;;;;;;;;;5038183;28;19931;-89
2021/08/18 14:28:35;;;;;;;;;;;;;;;;;;5040433;28;20340;-89
2021/08/18 14:31:05;;;;;;;;;;;;;;;;;;5037005;28;19924;-88
2021/08/18 14:33:37;;;;;;;;;;;;;;;;;;5038146;28;19929;-89
2021/08/18 14:36:07;;;;;;;;;;;;;;;;;;5036641;28;20439;-88
2021/08/18 14:38:36;;;;;;;;;;;;;;;;;;5040718;28;20007;-89
2021/08/18 14:41:04;;;;;;;;;;;;;;;;;;5072333;28;19924;-89
2021/08/18 14:43:35;;;;;;;;;;;;;;;;;;5039435;28;20326;-89
2021/08/18 14:46:05;;;;;;;;;;;;;;;;;;5044961;28;19939;-88
2021/08/18 14:48:34;;;;;;;;;;;;;;;;;;5039161;28;19924;-88
2021/08/18 14:51:03;;;;;;;;;;;;;;;;;;5058121;28;19924;-88
2021/08/18 14:53:31;;;;;;;;;;;;;;;;;;5036292;28;20410;-88
2021/08/18 14:56:02;;;;;;;;;;;;;;;;;;5039624;28;19929;-89
2021/08/18 14:58:30;;;;;;;;;;;;;;;;;;5048072;28;19925;-89
2021/08/18 15:00:58;;;;;;;;;;;;;;;;;;5043867;28;20422;-88
2021/08/18 15:03:27;;;;;;;;;;;;;;;;;;5056289;28;19925;-88
2021/08/18 15:05:56;;;;;;;;;;;;;;;;;;5043211;28;20297;-88
2021/08/18 15:08:24;;;;;;;;;;;;;;;;;;5058636;28;19932;-88
2021/08/18 15:10:53;;;;;;;;;;;;;;;;;;5041012;28;19931;-89
2021/08/18 15:13:21;;;;;;;;;;;;;;;;;;5045114;28;20407;-88
2021/08/18 15:15:49;;;;;;;;;;;;;;;;;;5042375;28;19940;-89
2021/08/18 15:18:17;;;;;;;;;;;;;;;;;;5076889;28;19924;-88
2021/08/18 15:20:45;;;;;;;;;;;;;;;;;;5040400;28;19925;-88
2021/08/18 15:23:15;;;;;;;;;;;;;;;;;;5055950;28;20396;-87
2021/08/18 15:25:43;;;;;;;;;;;;;;;;;;5037593;28;19935;-88
2021/08/18 15:28:12;;;;;;;;;;;;;;;;;;5059893;28;19924;-88
2021/08/18 15:30:41;;;;;;;;;;;;;;;;;;5053573;28;19925;-88
2021/08/18 15:33:11;;;;;;;;;;;;;;;;;;5041350;28;20311;-89
2021/08/18 15:35:39;;;;;;;;;;;;;;;;;;5034935;28;19929;-88
2021/08/18 15:38:10;;;;;;;;;;;;;;;;;;5072859;28;19933;-88
2021/08/18 15:40:41;;;;;;;;;;;;;;;;;;5038516;28;20072;-88
2021/08/18 15:43:09;;;;;;;;;;;;;;;;;;5036689;28;19932;-88
2021/08/18 15:45:37;;;;;;;;;;;;;;;;;;5041911;28;19924;-88
2021/08/18 15:48:06;;;;;;;;;;;;;;;;;;5057819;28;19951;-88
2021/08/18 15:50:34;;;;;;;;;;;;;;;;;;5041859;28;19924;-88
2021/08/18 15:53:08;;;;;;;;;;;;;;;;;;5043984;28;19929;-88
2021/08/18 15:55:38;;;;;;;;;;;;;;;;;;5053670;28;19932;-88
2021/08/18 15:58:08;;;;;;;;;;;;;;;;;;5040106;28;19939;-88
2021/08/18 16:00:38;;;;;;;;;;;;;;;;;;5037828;28;19924;-88
2021/08/18 16:03:07;;;;;;;;;;;;;;;;;;5057828;28;19929;-87
2021/08/18 16:05:35;;;;;;;;;;;;;;;;;;5042270;28;19931;-87
2021/08/18 16:08:04;;;;;;;;;;;;;;;;;;5035726;28;19924;-88
2021/08/18 16:10:32;;;;;;;;;;;;;;;;;;5056775;28;19924;-88
2021/08/18 16:13:00;;;;;;;;;;;;;;;;;;5037205;28;19929;-88
2021/08/18 16:15:29;;;;;;;;;;;;;;;;;;5069055;28;20326;-89
2021/08/18 16:17:58;;;;;;;;;;;;;;;;;;5035170;28;19936;-88
2021/08/18 16:20:26;;;;;;;;;;;;;;;;;;5036534;28;19931;-89
2021/08/18 16:22:54;;;;;;;;;;;;;;;;;;5038628;28;19924;-89
2021/08/18 16:25:22;;;;;;;;;;;;;;;;;;5051041;28;19924;-89
2021/08/18 16:27:50;;;;;;;;;;;;;;;;;;5035922;28;20307;-89
2021/08/18 16:30:18;;;;;;;;;;;;;;;;;;5035598;28;19925;-89
2021/08/18 16:32:55;;;;;;;;;;;;;;;;;;5036980;28;19935;-90
2021/08/18 16:35:24;;;;;;;;;;;;;;;;;;5037658;28;19932;-89
2021/08/18 16:37:52;;;;;;;;;;;;;;;;;;5034225;28;20308;-88
2021/08/18 16:40:20;;;;;;;;;;;;;;;;;;5036415;28;19928;-90
2021/08/18 16:42:49;;;;;;;;;;;;;;;;;;5035401;28;19925;-90
2021/08/18 16:45:18;;;;;;;;;;;;;;;;;;5038539;28;19932;-90
2021/08/18 16:47:47;;;;;;;;;;;;;;;;;;5053028;28;19912;-93
2021/08/18 16:50:17;;;;;;;;;;;;;;;;;;5073502;28;19913;-93
2021/08/18 16:52:48;;;;;;;;;;;;;;;;;;5075844;28;19914;-93
2021/08/18 16:55:17;;;;;;;;;;;;;;;;;;5074333;27;19922;-93
2021/08/18 16:57:45;;;;;;;;;;;;;;;;;;5059061;28;19921;-89
2021/08/18 17:00:16;;;;;;;;;;;;;;;;;;5071729;28;19931;-92
2021/08/18 17:02:45;;;;;;;;;;;;;;;;;;5062054;28;19908;-92
2021/08/18 17:05:13;;;;;;;;;;;;;;;;;;5044885;28;19924;-89